Time;durP1;ratioP1;P1;durP2;ratioP2;P2;SDS_P1;SDS_P2;PMS_P1;PMS_P2;Temp;Humidity;BMP_temperature;BMP_pressure;BME280_temperature;BME280_humidity;BME280_pressure;Samples;Min_cycle;Max_cycle;Signal;HPM_P1;HPM_P2
2023/07/16 00:01:13;;;;;;;5.70;4.35;;;;;;;30.62;43.54;100078.25;5094604;28;20048;-76
2023/07/16 00:03:41;;;;;;;5.43;4.70;;;;;;;30.60;43.23;100080.41;5094293;28;20071;-78
2023/07/16 00:06:10;;;;;;;5.25;4.38;;;;;;;30.59;43.32;100074.03;5094084;28;20486;-76
2023/07/16 00:08:38;;;;;;;5.30;4.60;;;;;;;30.58;43.69;100077.84;5093947;28;20546;-78
2023/07/16 00:11:08;;;;;;;4.93;4.13;;;;;;;30.57;43.40;100078.06;5076524;28;20465;-77
2023/07/16 00:13:37;;;;;;;5.82;4.88;;;;;;;30.55;43.59;100078.31;5094113;28;20135;-77
2023/07/16 00:16:06;;;;;;;5.72;4.60;;;;;;;30.54;43.31;100073.03;5093939;28;20134;-77
2023/07/16 00:18:36;;;;;;;5.45;4.15;;;;;;;30.53;43.43;100088.72;5094044;28;20044;-78
2023/07/16 00:21:05;;;;;;;5.93;4.57;;;;;;;30.51;43.38;100071.59;5093837;28;20044;-77
2023/07/16 00:23:33;;;;;;;6.43;4.60;;;;;;;30.49;43.37;100068.19;5094407;28;20055;-77
2023/07/16 00:26:04;;;;;;;6.15;4.65;;;;;;;30.48;43.78;100077.53;5093870;28;20409;-77
2023/07/16 00:28:40;;;;;;;5.60;4.38;;;;;;;30.48;43.42;100080.28;5093987;28;20473;-77
2023/07/16 00:31:08;;;;;;;6.13;4.55;;;;;;;30.46;43.49;100077.75;5093699;28;20054;-77
2023/07/16 00:33:37;;;;;;;6.15;5.13;;;;;;;30.44;43.53;100084.56;5093758;28;20055;-77
2023/07/16 00:36:08;;;;;;;6.00;4.70;;;;;;;30.44;43.46;100085.41;5093899;28;20052;-77
2023/07/16 00:38:36;;;;;;;5.32;4.28;;;;;;;30.43;43.55;100074.63;5093621;28;20051;-78
2023/07/16 00:41:04;;;;;;;6.57;5.00;;;;;;;30.42;43.65;100076.53;5093539;28;20112;-77
2023/07/16 00:43:32;;;;;;;5.85;4.60;;;;;;;30.41;43.46;100076.78;5093390;28;20055;-77
2023/07/16 00:46:03;;;;;;;5.40;4.45;;;;;;;30.39;43.29;100082.47;5075544;28;20052;-77
2023/07/16 00:48:34;;;;;;;6.20;4.85;;;;;;;30.39;43.59;100076.97;5093545;28;20040;-77
2023/07/16 00:51:03;;;;;;;5.22;4.68;;;;;;;30.36;43.61;100071.09;5093504;28;20048;-77
2023/07/16 00:53:32;;;;;;;5.95;4.65;;;;;;;30.36;43.73;100068.34;5093299;28;20550;-77
2023/07/16 00:56:01;;;;;;;6.18;4.80;;;;;;;30.36;43.56;100071.09;5093448;28;20093;-76
2023/07/16 00:58:30;;;;;;;7.13;4.93;;;;;;;30.34;43.53;100070.47;5093270;28;20052;-77
2023/07/16 01:01:02;;;;;;;5.78;4.35;;;;;;;30.34;43.65;100070.47;5093030;28;20962;-77
2023/07/16 01:03:31;;;;;;;5.43;4.55;;;;;;;30.32;43.72;100061.63;5093313;28;20054;-78
2023/07/16 01:06:05;;;;;;;6.00;4.45;;;;;;;30.29;43.45;100057.38;5092226;28;20044;-77
2023/07/16 01:08:39;;;;;;;5.60;4.75;;;;;;;30.30;43.63;100067.31;5092830;28;20051;-77
2023/07/16 01:11:08;;;;;;;5.55;4.60;;;;;;;30.28;43.68;100061.19;5092804;28;20044;-77
2023/07/16 01:13:37;;;;;;;6.32;4.95;;;;;;;30.27;43.55;100053.19;5093078;28;20127;-77
2023/07/16 01:16:07;;;;;;;6.28;4.90;;;;;;;30.27;43.68;100056.78;5092696;28;20048;-77
2023/07/16 01:18:35;;;;;;;6.05;4.85;;;;;;;30.25;43.58;100058.06;5092862;28;20047;-75
2023/07/16 01:21:04;;;;;;;5.30;4.50;;;;;;;30.23;43.55;100052.81;5092552;28;20046;-78
2023/07/16 01:23:57;;;;;;;5.50;4.65;;;;;;;30.22;43.67;100042.88;5092669;28;20052;-76
2023/07/16 01:26:52;;;;;;;5.65;4.78;;;;;;;30.22;43.87;100050.28;5092706;28;20040;-77
2023/07/16 01:29:30;;;;;;;5.80;4.45;;;;;;;30.21;43.81;100060.44;5088480;28;20054;-77
2023/07/16 01:32:01;;;;;;;5.40;4.38;;;;;;;30.19;43.72;100057.88;5092463;28;20055;-76
2023/07/16 01:34:33;;;;;;;5.20;4.70;;;;;;;30.17;43.70;100054.53;5092721;28;20117;-77
2023/07/16 01:37:05;;;;;;;6.45;4.63;;;;;;;30.17;43.80;100054.53;5092541;28;20512;-77
2023/07/16 01:39:34;;;;;;;5.38;4.80;;;;;;;30.17;44.04;100046.28;5092299;28;20055;-77
2023/07/16 01:42:02;;;;;;;4.93;4.40;;;;;;;30.15;43.85;100040.16;5092254;28;20063;-77
2023/07/16 01:44:32;;;;;;;5.25;4.75;;;;;;;30.15;44.01;100048.41;5092297;28;20051;-77
2023/07/16 01:47:11;;;;;;;5.85;4.28;;;;;;;30.12;44.00;100046.13;5092462;28;20044;-76
2023/07/16 01:49:43;;;;;;;6.65;4.70;;;;;;;30.13;43.77;100049.72;5092218;28;20050;-77
2023/07/16 01:52:11;;;;;;;5.47;4.43;;;;;;;30.11;43.81;100049.94;5092244;28;20063;-77
2023/07/16 01:54:39;;;;;;;5.03;4.25;;;;;;;30.09;43.93;100045.72;5092089;28;20044;-78
2023/07/16 01:57:07;;;;;;;5.13;4.50;;;;;;;30.09;44.13;100049.31;5091994;28;20059;-77
2023/07/16 01:59:39;;;;;;;6.43;4.50;;;;;;;30.08;44.13;100047.63;5092022;28;20481;-78
2023/07/16 02:02:07;;;;;;;5.63;4.75;;;;;;;30.07;44.10;100045.09;5092013;28;20044;-75
2023/07/16 02:04:36;;;;;;;5.50;4.88;;;;;;;30.06;44.14;100052.47;5073924;28;20054;-77
2023/07/16 02:07:05;;;;;;;5.20;4.70;;;;;;;30.05;43.89;100048.06;5091931;28;20448;-78
2023/07/16 02:09:35;;;;;;;5.80;4.70;;;;;;;30.04;44.04;100054.63;5091539;28;20140;-77
2023/07/16 02:12:03;;;;;;;6.18;4.90;;;;;;;30.03;44.24;100047.44;5091970;28;20056;-78
2023/07/16 02:14:31;;;;;;;5.85;4.97;;;;;;;30.02;44.06;100043.00;5092022;28;20051;-77
2023/07/16 02:17:01;;;;;;;6.05;4.85;;;;;;;30.01;44.07;100049.53;5091914;28;20044;-78
2023/07/16 02:19:29;;;;;;;5.15;4.50;;;;;;;30.00;44.06;100050.63;5091677;28;20050;-76
2023/07/16 02:22:00;;;;;;;6.03;4.60;;;;;;;30.00;44.18;100047.88;5091540;28;20048;-77
2023/07/16 02:24:29;;;;;;;6.05;5.18;;;;;;;29.98;44.07;100039.00;5091707;28;20081;-79
2023/07/16 02:26:57;;;;;;;6.10;4.63;;;;;;;29.97;44.03;100036.47;5091630;28;20051;-78
2023/07/16 02:29:28;;;;;;;6.53;5.03;;;;;;;29.97;44.08;100039.22;5091701;28;20051;-78
2023/07/16 02:31:56;;;;;;;4.72;4.22;;;;;;;29.95;44.20;100033.97;5091389;28;20059;-77
2023/07/16 02:34:26;;;;;;;6.20;5.00;;;;;;;29.92;43.86;100028.91;5091397;28;20040;-78
2023/07/16 02:36:57;;;;;;;5.18;4.68;;;;;;;29.92;44.10;100037.16;5091391;28;20422;-78
2023/07/16 02:39:25;;;;;;;5.18;4.50;;;;;;;29.92;43.85;100028.91;5091623;28;20130;-78
2023/07/16 02:41:54;;;;;;;6.03;4.95;;;;;;;29.89;44.19;100037.59;5091355;28;20390;-78
2023/07/16 02:44:22;;;;;;;5.28;4.75;;;;;;;29.89;43.98;100045.84;5091433;28;20546;-77
2023/07/16 02:46:50;;;;;;;5.43;4.32;;;;;;;29.86;44.11;100033.41;5091480;28;20052;-78
2023/07/16 02:49:19;;;;;;;5.28;4.53;;;;;;;29.86;44.14;100040.81;5091630;28;20120;-77
2023/07/16 02:51:49;;;;;;;6.55;4.57;;;;;;;29.85;44.20;100039.97;5092025;28;20436;-78
2023/07/16 02:54:17;;;;;;;5.97;4.75;;;;;;;29.86;44.06;100049.03;5091509;28;20048;-78
2023/07/16 02:56:45;;;;;;;4.97;4.20;;;;;;;29.83;44.19;100044.84;5091452;28;20417;-77
2023/07/16 02:59:13;;;;;;;5.85;5.25;;;;;;;29.84;44.00;100048.44;5091187;28;20052;-78
2023/07/16 03:01:43;;;;;;;5.72;4.63;;;;;;;29.82;44.23;100047.78;5073358;28;20544;-77
2023/07/16 03:04:11;;;;;;;6.47;4.30;;;;;;;29.82;44.39;100042.28;5106833;28;20044;-77
2023/07/16 03:06:41;;;;;;;6.28;4.75;;;;;;;29.80;44.42;100038.94;5091441;28;20493;-78
2023/07/16 03:09:11;;;;;;;5.45;4.35;;;;;;;29.79;44.36;100035.34;5090949;28;20083;-77
2023/07/16 03:11:39;;;;;;;5.43;4.63;;;;;;;29.77;44.36;100042.97;5091266;28;20048;-78
2023/07/16 03:14:07;;;;;;;5.55;4.82;;;;;;;29.78;44.46;100057.56;5091147;28;20048;-77
2023/07/16 03:16:38;;;;;;;6.13;4.78;;;;;;;29.76;44.18;100052.28;5091144;28;20059;-78
2023/07/16 03:19:07;;;;;;;5.63;4.57;;;;;;;29.75;44.45;100061.59;5091183;28;20048;-77
2023/07/16 03:21:35;;;;;;;5.40;4.70;;;;;;;29.75;44.30;100066.25;5091185;28;20134;-77
2023/07/16 03:24:04;;;;;;;5.60;4.75;;;;;;;29.74;44.39;100064.56;5091162;28;20391;-77
2023/07/16 03:26:34;;;;;;;5.50;4.32;;;;;;;29.73;44.36;100051.91;5091011;28;20382;-77
2023/07/16 03:29:02;;;;;;;5.97;4.80;;;;;;;29.72;44.32;100061.19;5107344;28;20051;-78
2023/07/16 03:31:30;;;;;;;5.80;4.65;;;;;;;29.72;44.22;100063.94;5095034;28;20051;-77
2023/07/16 03:33:59;;;;;;;5.38;4.55;;;;;;;29.71;44.41;100076.00;5094769;28;20434;-77
2023/07/16 03:36:27;;;;;;;7.43;4.60;;;;;;;29.70;44.42;100069.66;5094778;28;20048;-76
2023/07/16 03:38:55;;;;;;;5.47;4.65;;;;;;;29.70;44.49;100074.31;5094734;28;20093;-77
2023/07/16 03:41:23;;;;;;;5.63;4.60;;;;;;;29.69;44.42;100072.63;5094667;28;20093;-77
2023/07/16 03:43:53;;;;;;;5.07;4.35;;;;;;;29.67;44.58;100080.25;5094597;28;20055;-77
2023/07/16 03:46:24;;;;;;;5.75;4.55;;;;;;;29.66;44.60;100084.06;5094582;28;20130;-77
2023/07/16 03:48:54;;;;;;;5.25;4.43;;;;;;;29.64;44.42;100076.91;5094427;28;20097;-78
2023/07/16 03:51:24;;;;;;;5.85;4.75;;;;;;;29.66;44.44;100095.06;5094447;28;20044;-77
2023/07/16 03:53:53;;;;;;;6.35;4.47;;;;;;;29.63;44.21;100086.22;5094429;28;20040;-75
2023/07/16 03:56:24;;;;;;;5.82;4.70;;;;;;;29.63;44.44;100097.19;5094341;28;20059;-78
2023/07/16 03:58:59;;;;;;;5.53;4.45;;;;;;;29.62;44.50;100090.00;5094505;28;20185;-78
2023/07/16 04:01:27;;;;;;;5.70;4.73;;;;;;;29.62;44.66;100081.75;5094515;28;20105;-77
2023/07/16 04:03:55;;;;;;;5.30;4.45;;;;;;;29.61;44.32;100088.31;5094243;28;20052;-77
2023/07/16 04:06:26;;;;;;;5.22;4.40;;;;;;;29.60;44.40;100094.03;5094245;28;20143;-77
2023/07/16 04:08:54;;;;;;;5.20;4.40;;;;;;;29.59;44.52;100095.94;5093997;28;20466;-76
2023/07/16 04:11:25;;;;;;;5.35;4.03;;;;;;;29.58;44.36;100094.25;5094284;28;20052;-77
2023/07/16 04:13:53;;;;;;;5.85;4.80;;;;;;;29.58;44.50;100090.66;5094170;28;20500;-77
2023/07/16 04:16:23;;;;;;;5.45;4.15;;;;;;;29.57;44.56;100087.06;5094131;28;20052;-77
2023/07/16 04:18:51;;;;;;;6.35;4.63;;;;;;;29.56;44.55;100090.91;5093907;28;20448;-77
2023/07/16 04:21:23;;;;;;;5.60;4.30;;;;;;;29.56;44.57;100093.63;5093709;28;20146;-77
2023/07/16 04:23:54;;;;;;;5.30;4.57;;;;;;;29.56;44.59;100096.38;5093871;28;20089;-77
2023/07/16 04:26:22;;;;;;;5.85;4.68;;;;;;;29.55;44.44;100100.19;5093684;28;20047;-77
2023/07/16 04:28:50;;;;;;;5.30;4.25;;;;;;;29.56;44.61;100101.88;5093860;28;20113;-77
2023/07/16 04:31:20;;;;;;;4.70;4.18;;;;;;;29.55;44.60;100105.69;5093757;28;20072;-77
2023/07/16 04:33:50;;;;;;;5.38;4.55;;;;;;;29.53;44.74;100096.84;5093446;28;20051;-76
2023/07/16 04:36:18;;;;;;;5.20;4.40;;;;;;;29.53;44.68;100096.84;5075772;28;20055;-78
2023/07/16 04:38:46;;;;;;;6.00;4.32;;;;;;;29.54;44.81;100103.19;5093714;28;20058;-76
2023/07/16 04:41:23;;;;;;;6.15;4.05;;;;;;;29.51;44.74;100104.44;5093586;28;20048;-77
2023/07/16 04:43:51;;;;;;;5.22;4.50;;;;;;;29.53;44.84;100106.97;5093533;28;20048;-76
2023/07/16 04:46:19;;;;;;;5.70;4.47;;;;;;;29.51;44.69;100109.94;5093201;28;20040;-76
2023/07/16 04:48:47;;;;;;;6.07;4.35;;;;;;;29.50;44.81;100102.75;5093574;28;20572;-77
2023/07/16 04:51:17;;;;;;;5.28;4.30;;;;;;;29.51;44.57;100101.69;5093487;28;20044;-77
2023/07/16 04:53:49;;;;;;;5.43;4.40;;;;;;;29.51;44.74;100103.59;5093241;28;20448;-76
2023/07/16 04:56:18;;;;;;;6.60;4.50;;;;;;;29.50;44.57;100105.50;5093054;28;20478;-76
2023/07/16 04:58:49;;;;;;;4.82;4.05;;;;;;;29.50;44.94;100113.75;5093334;28;20048;-76
2023/07/16 05:01:17;;;;;;;5.18;4.30;;;;;;;29.50;44.81;100121.16;5093380;28;20104;-77
2023/07/16 05:03:46;;;;;;;5.13;4.20;;;;;;;29.49;44.99;100123.06;5092977;28;20056;-77
2023/07/16 05:06:14;;;;;;;5.13;4.22;;;;;;;29.49;44.79;100125.78;5093187;28;20056;-77
2023/07/16 05:08:47;;;;;;;5.85;4.57;;;;;;;29.49;44.66;100123.06;5075079;28;20127;-77
2023/07/16 05:11:16;;;;;;;4.80;4.00;;;;;;;29.48;44.91;100124.13;5092971;28;20402;-77
2023/07/16 05:13:44;;;;;;;4.85;4.00;;;;;;;29.49;44.72;100125.78;5093230;28;20078;-76
2023/07/16 05:16:12;;;;;;;4.53;3.88;;;;;;;29.48;44.95;100135.09;5092871;28;20052;-77
2023/07/16 05:18:41;;;;;;;5.15;3.92;;;;;;;29.47;44.60;100133.38;5092788;28;20127;-77
2023/07/16 05:21:10;;;;;;;5.07;3.92;;;;;;;29.46;44.79;100137.19;5092641;28;20048;-77
2023/07/16 05:23:38;;;;;;;5.45;4.45;;;;;;;29.44;44.96;100127.50;5092255;28;20121;-77
2023/07/16 05:26:08;;;;;;;5.03;4.32;;;;;;;29.45;45.06;100126.44;5091960;28;20101;-77
2023/07/16 05:28:36;;;;;;;5.10;4.28;;;;;;;29.45;45.05;100126.44;5092370;28;20048;-77
2023/07/16 05:31:04;;;;;;;5.53;4.00;;;;;;;29.44;44.88;100113.75;5092103;28;20409;-76
2023/07/16 05:33:33;;;;;;;4.90;3.95;;;;;;;29.44;45.01;100117.34;5091639;28;20048;-77
2023/07/16 05:36:04;;;;;;;5.28;3.95;;;;;;;29.45;44.71;100123.69;5091232;28;20109;-77
2023/07/16 05:38:32;;;;;;;5.50;3.90;;;;;;;29.44;44.76;100119.25;5090832;28;20131;-76
2023/07/16 05:41:02;;;;;;;5.38;3.88;;;;;;;29.44;45.16;100120.09;5091208;28;20047;-76
2023/07/16 05:43:35;;;;;;;4.68;4.03;;;;;;;29.44;44.94;100125.59;5091142;28;20456;-77
2023/07/16 05:46:05;;;;;;;4.70;3.85;;;;;;;29.44;45.06;100125.59;5091136;28;20075;-78
2023/07/16 05:48:33;;;;;;;5.63;4.05;;;;;;;29.43;45.25;100112.03;5091120;28;20052;-78
2023/07/16 05:51:01;;;;;;;5.70;4.03;;;;;;;29.44;44.79;100120.09;5090860;28;20048;-76
2023/07/16 05:53:30;;;;;;;4.85;3.88;;;;;;;29.44;44.96;100119.25;5090309;28;20131;-78
2023/07/16 05:55:58;;;;;;;5.53;3.80;;;;;;;29.42;45.15;100122.19;5091149;28;20048;-77
2023/07/16 05:58:29;;;;;;;5.05;4.10;;;;;;;29.44;44.92;100122.84;5090880;28;20585;-77
2023/07/16 06:00:59;;;;;;;4.78;3.92;;;;;;;29.44;45.13;100120.09;5090793;28;20122;-77
2023/07/16 06:03:27;;;;;;;5.13;3.90;;;;;;;29.43;45.24;100118.38;5090750;28;20809;-78
2023/07/16 06:05:55;;;;;;;5.35;4.13;;;;;;;29.44;44.81;100131.09;5090607;28;20100;-77
2023/07/16 06:08:26;;;;;;;5.85;4.28;;;;;;;29.43;44.96;100134.88;5090586;28;20101;-78
2023/07/16 06:10:54;;;;;;;4.78;3.95;;;;;;;29.43;45.11;100139.53;5090851;28;20101;-77
2023/07/16 06:13:23;;;;;;;5.93;4.10;;;;;;;29.42;44.80;100129.59;5090776;28;20047;-77
2023/07/16 06:15:51;;;;;;;4.90;4.00;;;;;;;29.43;45.22;100137.63;5090678;28;20055;-79
2023/07/16 06:18:21;;;;;;;5.55;4.10;;;;;;;29.43;45.12;100134.03;5090906;28;20486;-77
2023/07/16 06:20:54;;;;;;;5.00;4.00;;;;;;;29.43;45.22;100132.13;5091001;28;20480;-77
2023/07/16 06:23:22;;;;;;;5.10;3.97;;;;;;;29.42;44.94;100138.69;5106270;28;20043;-76
2023/07/16 06:25:55;;;;;;;4.82;3.92;;;;;;;29.42;45.36;100127.69;5091062;28;20048;-76
2023/07/16 06:28:25;;;;;;;4.07;3.47;;;;;;;29.42;45.01;100138.69;5091151;28;20146;-75
2023/07/16 06:30:53;;;;;;;5.20;4.35;;;;;;;29.44;45.14;100142.06;5090910;28;20137;-76
2023/07/16 06:33:23;;;;;;;5.50;3.90;;;;;;;29.44;45.16;100142.06;5090767;28;20093;-76
2023/07/16 06:35:51;;;;;;;4.47;3.83;;;;;;;29.45;45.11;100137.44;5073151;28;20052;-77
2023/07/16 06:38:22;;;;;;;5.47;3.88;;;;;;;29.44;45.20;100139.34;5090984;28;20130;-76
2023/07/16 06:40:53;;;;;;;5.40;4.15;;;;;;;29.44;44.94;100142.06;5090865;28;20040;-76
2023/07/16 06:43:21;;;;;;;5.03;3.80;;;;;;;29.45;45.37;100138.25;5091377;28;20083;-76
2023/07/16 06:45:50;;;;;;;5.15;3.90;;;;;;;29.43;45.06;100134.88;5091315;28;20139;-77
2023/07/16 06:48:19;;;;;;;5.55;3.83;;;;;;;29.45;45.36;100132.78;5091357;28;20082;-77
2023/07/16 06:50:51;;;;;;;4.82;3.95;;;;;;;29.45;45.48;100135.53;5091416;28;20455;-76
2023/07/16 06:53:22;;;;;;;4.82;4.20;;;;;;;29.45;45.24;100130.03;5091429;28;20075;-76
2023/07/16 06:55:51;;;;;;;4.40;3.70;;;;;;;29.47;45.26;100135.28;5091335;28;20044;-78
2023/07/16 06:58:19;;;;;;;4.95;4.10;;;;;;;29.46;45.06;100128.97;5091186;28;20052;-76
2023/07/16 07:00:52;;;;;;;4.70;3.75;;;;;;;29.45;45.35;100130.03;5091464;28;20055;-78
2023/07/16 07:03:20;;;;;;;4.50;3.70;;;;;;;29.46;45.35;100128.97;5091369;28;20047;-77
2023/07/16 07:05:50;;;;;;;5.05;3.90;;;;;;;29.46;45.04;100120.72;5077297;28;20048;-77
2023/07/16 07:08:18;;;;;;;4.30;3.70;;;;;;;29.45;45.38;100119.03;5095363;28;20048;-77
2023/07/16 07:10:47;;;;;;;4.75;3.90;;;;;;;29.47;45.24;100124.31;5095079;28;20135;-76
2023/07/16 07:13:19;;;;;;;4.80;3.95;;;;;;;29.46;45.56;100115.22;5077535;28;20087;-76
2023/07/16 07:15:47;;;;;;;5.03;4.20;;;;;;;29.47;44.99;100113.31;5095301;28;20446;-78
2023/07/16 07:18:18;;;;;;;5.57;3.83;;;;;;;29.46;45.31;100112.47;5095218;28;20044;-77
2023/07/16 07:20:48;;;;;;;4.43;3.70;;;;;;;29.48;45.34;100112.25;5095081;28;20055;-77
2023/07/16 07:23:20;;;;;;;4.80;3.63;;;;;;;29.47;45.08;100125.16;5095013;28;20127;-77
2023/07/16 07:25:55;;;;;;;4.10;3.47;;;;;;;29.47;45.38;100114.16;5094894;28;20064;-73
2023/07/16 07:28:27;;;;;;;4.82;3.85;;;;;;;29.47;45.40;100116.91;5095057;28;20051;-77
2023/07/16 07:30:56;;;;;;;6.10;4.03;;;;;;;29.49;45.47;100116.72;5077117;28;20184;-78
2023/07/16 07:33:27;;;;;;;4.63;3.80;;;;;;;29.49;45.28;100117.56;5076873;28;20076;-77
2023/07/16 07:35:55;;;;;;;5.90;3.88;;;;;;;29.50;45.43;100116.50;5094751;28;20076;-77
2023/07/16 07:38:26;;;;;;;4.65;3.90;;;;;;;29.49;45.31;100123.06;5077349;28;20125;-78
2023/07/16 07:40:54;;;;;;;4.78;3.67;;;;;;;29.50;45.20;100121.97;5094835;28;20106;-78
2023/07/16 07:43:22;;;;;;;4.13;3.60;;;;;;;29.51;45.60;100114.59;5094730;28;20051;-78
2023/07/16 07:45:51;;;;;;;4.70;3.60;;;;;;;29.51;45.11;100107.19;5094648;28;20079;-77
2023/07/16 07:48:21;;;;;;;4.78;3.90;;;;;;;29.52;45.45;100106.13;5094566;28;20339;-77
2023/07/16 07:50:51;;;;;;;4.32;3.75;;;;;;;29.52;45.28;100106.13;5094668;28;20040;-77
2023/07/16 07:53:20;;;;;;;4.65;3.80;;;;;;;29.53;45.19;100113.31;5094413;28;20043;-78
2023/07/16 07:55:53;;;;;;;5.05;3.60;;;;;;;29.53;45.25;100107.84;5094359;28;20482;-78
2023/07/16 07:58:24;;;;;;;4.75;3.63;;;;;;;29.53;45.39;100104.22;5094386;28;20432;-78
2023/07/16 08:00:53;;;;;;;4.72;3.60;;;;;;;29.55;45.26;100105.69;5094559;28;20098;-77
2023/07/16 08:03:21;;;;;;;4.97;3.88;;;;;;;29.56;45.39;100096.38;5094347;28;20592;-77
2023/07/16 08:05:53;;;;;;;5.00;3.55;;;;;;;29.56;45.29;100101.88;5094459;28;20079;-77
2023/07/16 08:08:21;;;;;;;4.35;3.67;;;;;;;29.57;45.15;100103.56;5094328;28;20135;-76
2023/07/16 08:10:50;;;;;;;4.68;3.53;;;;;;;29.57;45.36;100097.22;5092891;28;20136;-77
2023/07/16 08:13:18;;;;;;;5.38;3.78;;;;;;;29.59;45.48;100095.09;5092806;28;20044;-76
2023/07/16 08:15:48;;;;;;;5.60;3.67;;;;;;;29.59;45.13;100101.44;5092564;28;20070;-77
2023/07/16 08:18:19;;;;;;;5.10;3.70;;;;;;;29.59;45.24;100095.94;5093080;28;20044;-77
2023/07/16 08:20:48;;;;;;;4.07;3.33;;;;;;;29.61;45.47;100091.06;5093080;28;20047;-78
2023/07/16 08:23:16;;;;;;;5.22;3.55;;;;;;;29.62;45.35;100094.66;5093000;28;20401;-78
2023/07/16 08:25:44;;;;;;;4.80;3.60;;;;;;;29.62;45.33;100098.25;5075087;28;20059;-77
2023/07/16 08:28:15;;;;;;;4.90;3.72;;;;;;;29.63;45.38;100094.44;5074999;28;20055;-77
2023/07/16 08:30:43;;;;;;;4.57;3.25;;;;;;;29.64;45.63;100087.88;5092821;28;20126;-76
2023/07/16 08:33:14;;;;;;;4.68;3.30;;;;;;;29.65;45.51;100088.72;5092778;28;20071;-78
2023/07/16 08:35:43;;;;;;;4.40;3.42;;;;;;;29.66;45.51;100084.91;5092715;28;20040;-78
2023/07/16 08:38:11;;;;;;;5.25;3.58;;;;;;;29.66;45.39;100084.06;5092588;28;20055;-78
2023/07/16 08:40:39;;;;;;;4.45;3.42;;;;;;;29.68;45.62;100092.94;5092426;28;20048;-77
2023/07/16 08:43:07;;;;;;;4.32;3.30;;;;;;;29.70;45.15;100097.16;5092696;28;20087;-76
2023/07/16 08:45:40;;;;;;;6.57;3.35;;;;;;;29.69;45.18;100089.97;5092174;28;20560;-76
2023/07/16 08:48:09;;;;;;;3.92;3.33;;;;;;;29.71;45.44;100089.75;5092606;28;20044;-77
2023/07/16 08:50:41;;;;;;;4.55;3.35;;;;;;;29.73;45.27;100095.88;5092399;28;20055;-76
2023/07/16 08:53:09;;;;;;;4.43;3.60;;;;;;;29.73;45.24;100082.97;5092424;28;20460;-77
2023/07/16 08:55:38;;;;;;;4.20;3.35;;;;;;;29.73;45.02;100077.47;5092582;28;20060;-77
2023/07/16 08:58:07;;;;;;;4.53;3.55;;;;;;;29.76;45.26;100084.44;5092391;28;20501;-77
2023/07/16 09:00:37;;;;;;;4.15;3.20;;;;;;;29.77;45.46;100080.63;5092335;28;20094;-77
2023/07/16 09:03:05;;;;;;;5.57;3.63;;;;;;;29.77;45.18;100092.44;5092264;28;20040;-77
2023/07/16 09:05:35;;;;;;;4.57;3.60;;;;;;;29.80;45.20;100088.41;5091907;28;20044;-77
2023/07/16 09:08:07;;;;;;;4.10;3.30;;;;;;;29.81;45.25;100092.84;5092366;28;20048;-78
2023/07/16 09:10:36;;;;;;;4.30;3.30;;;;;;;29.82;45.21;100095.41;5053014;28;1132705;-77
2023/07/16 09:13:04;;;;;;;4.88;3.50;;;;;;;29.83;45.38;100090.75;5093070;28;20048;-77
2023/07/16 09:15:33;;;;;;;4.43;3.60;;;;;;;29.84;45.50;100093.25;5074957;28;20044;-77
2023/07/16 09:18:03;;;;;;;4.57;3.50;;;;;;;29.85;45.07;100091.34;5093258;28;20062;-78
2023/07/16 09:20:32;;;;;;;4.63;3.33;;;;;;;29.87;45.13;100083.72;5092726;28;20430;-78
2023/07/16 09:23:00;;;;;;;4.90;3.50;;;;;;;29.86;45.19;100085.63;5075086;28;20044;-77
2023/07/16 09:25:29;;;;;;;4.72;3.55;;;;;;;29.90;45.08;100081.34;5092766;28;20058;-78
2023/07/16 09:28:03;;;;;;;5.35;3.58;;;;;;;29.91;45.24;100083.03;5091973;28;20044;-78
2023/07/16 09:30:33;;;;;;;5.07;3.85;;;;;;;29.92;45.54;100079.25;5092742;28;20088;-78
2023/07/16 09:33:11;;;;;;;4.75;3.88;;;;;;;29.93;45.31;100074.59;5092655;28;20048;-78
2023/07/16 09:35:40;;;;;;;5.75;4.20;;;;;;;29.95;45.28;100077.13;5092852;28;20394;-78
2023/07/16 09:38:10;;;;;;;5.28;4.28;;;;;;;29.97;45.71;100075.81;5092620;28;20135;-78
2023/07/16 09:40:39;;;;;;;4.68;3.97;;;;;;;30.00;45.58;100071.78;5092527;28;20486;-77
2023/07/16 09:43:11;;;;;;;6.78;4.28;;;;;;;30.00;45.50;100080.88;5092691;28;20055;-78
2023/07/16 09:45:40;;;;;;;5.15;3.85;;;;;;;30.02;45.63;100077.91;5092332;28;20044;-79
2023/07/16 09:48:09;;;;;;;5.60;4.32;;;;;;;30.03;45.78;100080.44;5092619;28;20055;-77
2023/07/16 09:50:45;;;;;;;4.97;4.20;;;;;;;30.05;45.77;100074.72;5092450;28;20554;-76
2023/07/16 09:53:16;;;;;;;5.80;4.50;;;;;;;30.07;45.76;100078.09;5092174;28;20044;-77
2023/07/16 09:55:45;;;;;;;6.93;4.38;;;;;;;30.08;45.87;100079.78;5092054;28;20590;-78
2023/07/16 09:58:15;;;;;;;5.53;4.50;;;;;;;30.09;45.85;100081.47;5092406;28;20105;-79
2023/07/16 10:00:43;;;;;;;6.00;4.20;;;;;;;30.10;45.87;100075.72;5092357;28;20047;-76
2023/07/16 10:03:15;;;;;;;5.55;4.43;;;;;;;30.13;45.78;100078.06;5092098;28;20044;-79
2023/07/16 10:05:46;;;;;;;5.55;4.35;;;;;;;30.16;45.82;100076.75;5091898;28;20097;-78
2023/07/16 10:08:18;;;;;;;6.63;4.60;;;;;;;30.18;45.73;100082.88;5092046;28;20040;-78
2023/07/16 10:10:51;;;;;;;6.47;4.70;;;;;;;30.19;45.89;100081.81;5073917;28;20047;-76
2023/07/16 10:13:24;;;;;;;6.70;4.72;;;;;;;30.20;45.69;100081.56;5092259;28;20052;-77
2023/07/16 10:15:54;;;;;;;5.82;4.82;;;;;;;30.22;45.82;100075.88;5091902;28;20048;-78
2023/07/16 10:18:34;;;;;;;6.65;4.80;;;;;;;30.25;45.75;100066.31;5091814;28;20055;-77
2023/07/16 10:21:07;;;;;;;5.65;4.93;;;;;;;30.27;45.68;100066.94;5091631;28;20047;-77
2023/07/16 10:23:40;;;;;;;5.43;4.63;;;;;;;30.29;45.67;100059.28;5091804;28;20416;-79
2023/07/16 10:26:11;;;;;;;6.15;4.93;;;;;;;30.31;45.61;100062.69;5092104;28;20101;-78
2023/07/16 10:28:42;;;;;;;7.10;5.82;;;;;;;30.33;45.64;100063.28;5091699;28;20456;-78
2023/07/16 10:31:22;;;;;;;7.03;5.40;;;;;;;30.35;45.74;100062.00;5091611;28;20048;-78
2023/07/16 10:34:00;;;;;;;6.18;4.75;;;;;;;30.36;45.60;100057.31;5091850;28;20071;-78
2023/07/16 10:36:28;;;;;;;5.78;4.78;;;;;;;30.39;45.51;100057.72;5091498;28;20113;-78
2023/07/16 10:39:03;;;;;;;5.57;4.82;;;;;;;30.43;45.47;100060.88;5091465;28;20048;-77
2023/07/16 10:41:32;;;;;;;6.35;5.03;;;;;;;30.43;45.60;100058.13;5091775;28;20460;-78
2023/07/16 10:44:02;;;;;;;5.53;4.57;;;;;;;30.45;45.36;100050.47;5091388;28;20130;-76
2023/07/16 10:46:31;;;;;;;6.45;4.93;;;;;;;30.47;45.48;100054.66;5091311;28;20051;-77
2023/07/16 10:49:02;;;;;;;5.90;5.25;;;;;;;30.50;45.45;100061.66;5091669;28;20048;-77
2023/07/16 10:51:30;;;;;;;7.50;4.80;;;;;;;30.51;45.57;100051.50;5091745;28;20048;-78
2023/07/16 10:53:58;;;;;;;6.03;4.95;;;;;;;30.53;45.52;100055.69;5091683;28;20079;-78
2023/07/16 10:56:26;;;;;;;5.63;5.03;;;;;;;30.56;45.52;100046.97;5091215;28;20047;-79
2023/07/16 10:58:55;;;;;;;6.30;4.95;;;;;;;30.58;45.32;100044.81;5106895;28;20135;-78
2023/07/16 11:01:23;;;;;;;5.80;4.75;;;;;;;30.58;45.54;100049.47;5091279;28;20044;-77
2023/07/16 11:03:54;;;;;;;6.50;5.05;;;;;;;30.59;45.53;100045.66;5091331;28;20041;-78
2023/07/16 11:06:24;;;;;;;5.45;4.90;;;;;;;30.63;45.89;100046.91;5091469;28;20052;-77
2023/07/16 11:08:52;;;;;;;6.75;4.93;;;;;;;30.64;45.44;100043.94;5091017;28;20052;-78
2023/07/16 11:11:29;;;;;;;6.30;5.38;;;;;;;30.67;45.43;100043.47;5091175;28;20052;-77
2023/07/16 11:13:57;;;;;;;7.00;5.40;;;;;;;30.70;45.54;100044.97;5091404;28;20127;-79
2023/07/16 11:16:26;;;;;;;6.45;5.30;;;;;;;30.74;45.33;100046.16;5091116;28;20485;-77
2023/07/16 11:18:54;;;;;;;6.25;5.13;;;;;;;30.76;45.49;100053.13;5091204;28;20080;-78
2023/07/16 11:21:27;;;;;;;6.65;4.95;;;;;;;30.77;45.57;100046.53;5091076;28;20078;-77
2023/07/16 11:23:56;;;;;;;7.53;4.72;;;;;;;30.78;45.28;100039.97;5091383;28;20062;-77
2023/07/16 11:26:24;;;;;;;6.82;5.20;;;;;;;30.82;45.47;100045.03;5091173;28;20053;-78
2023/07/16 11:28:53;;;;;;;6.25;4.70;;;;;;;30.86;45.42;100035.22;5091319;28;20044;-78
2023/07/16 11:31:21;;;;;;;5.47;4.80;;;;;;;30.90;45.28;100029.06;5091419;28;20351;-78
2023/07/16 11:33:52;;;;;;;6.55;5.18;;;;;;;30.91;45.47;100032.66;5090976;28;20482;-78
2023/07/16 11:36:20;;;;;;;5.90;5.28;;;;;;;30.96;45.27;100036.38;5090862;28;20055;-78